sensor_id;sensor_type;location;lat;lon;timestamp;temperature;humidity
4386;DHT22;2207;53.540;10.042;2023-06-14T00:01:41;15.10;63.50
4386;DHT22;2207;53.540;10.042;2023-06-14T00:04:10;15.10;63.50
4386;DHT22;2207;53.540;10.042;2023-06-14T00:06:38;15.10;63.40
4386;DHT22;2207;53.540;10.042;2023-06-14T00:09:06;15.10;63.70
4386;DHT22;2207;53.540;10.042;2023-06-14T00:11:35;15.10;63.70
4386;DHT22;2207;53.540;10.042;2023-06-14T00:14:02;15.10;63.60
4386;DHT22;2207;53.540;10.042;2023-06-14T00:16:29;15.00;63.50
4386;DHT22;2207;53.540;10.042;2023-06-14T00:18:56;15.00;63.60
4386;DHT22;2207;53.540;10.042;2023-06-14T00:21:23;15.00;63.80
4386;DHT22;2207;53.540;10.042;2023-06-14T00:23:49;14.90;63.70
4386;DHT22;2207;53.540;10.042;2023-06-14T00:26:16;14.90;63.80
4386;DHT22;2207;53.540;10.042;2023-06-14T00:28:44;14.90;63.80
4386;DHT22;2207;53.540;10.042;2023-06-14T00:31:11;14.90;63.80
4386;DHT22;2207;53.540;10.042;2023-06-14T00:33:37;14.80;63.80
4386;DHT22;2207;53.540;10.042;2023-06-14T00:36:04;14.80;64.10
4386;DHT22;2207;53.540;10.042;2023-06-14T00:38:31;14.80;64.40
4386;DHT22;2207;53.540;10.042;2023-06-14T00:40:58;14.80;64.50
4386;DHT22;2207;53.540;10.042;2023-06-14T00:43:24;14.80;64.50
4386;DHT22;2207;53.540;10.042;2023-06-14T00:45:53;14.70;64.40
4386;DHT22;2207;53.540;10.042;2023-06-14T00:48:19;14.70;64.30
4386;DHT22;2207;53.540;10.042;2023-06-14T00:50:46;14.60;64.50
4386;DHT22;2207;53.540;10.042;2023-06-14T00:53:14;14.60;64.90
4386;DHT22;2207;53.540;10.042;2023-06-14T00:55:42;14.60;65.00
4386;DHT22;2207;53.540;10.042;2023-06-14T00:58:09;14.60;65.20
4386;DHT22;2207;53.540;10.042;2023-06-14T01:00:37;14.60;65.10
4386;DHT22;2207;53.540;10.042;2023-06-14T01:03:05;14.60;65.10
4386;DHT22;2207;53.540;10.042;2023-06-14T01:05:31;14.50;65.30
4386;DHT22;2207;53.540;10.042;2023-06-14T01:08:13;14.50;65.40
4386;DHT22;2207;53.540;10.042;2023-06-14T01:10:46;14.50;65.40
4386;DHT22;2207;53.540;10.042;2023-06-14T01:13:23;14.50;65.60
4386;DHT22;2207;53.540;10.042;2023-06-14T01:15:53;14.40;65.80
4386;DHT22;2207;53.540;10.042;2023-06-14T01:18:22;14.40;65.70
4386;DHT22;2207;53.540;10.042;2023-06-14T01:20:49;14.40;65.80
4386;DHT22;2207;53.540;10.042;2023-06-14T01:23:20;14.40;65.80
4386;DHT22;2207;53.540;10.042;2023-06-14T01:25:48;14.30;65.90
4386;DHT22;2207;53.540;10.042;2023-06-14T01:28:18;14.30;66.20
4386;DHT22;2207;53.540;10.042;2023-06-14T01:30:48;14.30;66.30
4386;DHT22;2207;53.540;10.042;2023-06-14T01:33:19;14.30;66.20
4386;DHT22;2207;53.540;10.042;2023-06-14T01:35:48;14.20;66.20
4386;DHT22;2207;53.540;10.042;2023-06-14T01:38:15;14.20;66.00
4386;DHT22;2207;53.540;10.042;2023-06-14T01:40:45;14.20;66.20
4386;DHT22;2207;53.540;10.042;2023-06-14T01:43:13;14.20;66.50
4386;DHT22;2207;53.540;10.042;2023-06-14T01:45:40;14.10;66.40
4386;DHT22;2207;53.540;10.042;2023-06-14T01:48:08;14.10;66.40
4386;DHT22;2207;53.540;10.042;2023-06-14T01:50:35;14.10;66.80
4386;DHT22;2207;53.540;10.042;2023-06-14T01:53:02;14.10;66.60
4386;DHT22;2207;53.540;10.042;2023-06-14T01:55:29;14.00;66.40
4386;DHT22;2207;53.540;10.042;2023-06-14T01:58:04;14.00;66.90
4386;DHT22;2207;53.540;10.042;2023-06-14T02:00:31;14.00;67.00
4386;DHT22;2207;53.540;10.042;2023-06-14T02:02:57;14.00;67.00
4386;DHT22;2207;53.540;10.042;2023-06-14T02:05:24;14.00;67.30
4386;DHT22;2207;53.540;10.042;2023-06-14T02:07:51;14.00;67.40
4386;DHT22;2207;53.540;10.042;2023-06-14T02:10:22;13.90;67.30
4386;DHT22;2207;53.540;10.042;2023-06-14T02:12:48;13.90;67.50
4386;DHT22;2207;53.540;10.042;2023-06-14T02:15:17;13.90;67.70
4386;DHT22;2207;53.540;10.042;2023-06-14T02:17:45;13.90;68.00
4386;DHT22;2207;53.540;10.042;2023-06-14T02:20:12;13.90;68.10
4386;DHT22;2207;53.540;10.042;2023-06-14T02:22:39;13.90;68.20
4386;DHT22;2207;53.540;10.042;2023-06-14T02:25:07;13.90;68.40
4386;DHT22;2207;53.540;10.042;2023-06-14T02:27:34;13.90;68.50
4386;DHT22;2207;53.540;10.042;2023-06-14T02:30:01;13.80;68.40
4386;DHT22;2207;53.540;10.042;2023-06-14T02:32:29;13.80;68.50
4386;DHT22;2207;53.540;10.042;2023-06-14T02:34:55;13.80;68.50
4386;DHT22;2207;53.540;10.042;2023-06-14T02:37:22;13.80;68.70
4386;DHT22;2207;53.540;10.042;2023-06-14T02:39:49;13.80;68.50
4386;DHT22;2207;53.540;10.042;2023-06-14T02:42:16;13.80;68.50
4386;DHT22;2207;53.540;10.042;2023-06-14T02:44:42;13.80;68.90
4386;DHT22;2207;53.540;10.042;2023-06-14T02:47:10;13.80;68.70
4386;DHT22;2207;53.540;10.042;2023-06-14T02:49:38;13.80;68.90
4386;DHT22;2207;53.540;10.042;2023-06-14T02:52:05;13.80;68.90
4386;DHT22;2207;53.540;10.042;2023-06-14T02:54:34;13.80;68.90
4386;DHT22;2207;53.540;10.042;2023-06-14T02:57:01;13.70;68.80
4386;DHT22;2207;53.540;10.042;2023-06-14T02:59:28;13.70;69.10
4386;DHT22;2207;53.540;10.042;2023-06-14T03:01:55;13.70;69.10
4386;DHT22;2207;53.540;10.042;2023-06-14T03:04:22;13.70;69.20
4386;DHT22;2207;53.540;10.042;2023-06-14T03:06:53;13.70;69.30
4386;DHT22;2207;53.540;10.042;2023-06-14T03:09:20;13.70;69.20
4386;DHT22;2207;53.540;10.042;2023-06-14T03:11:47;13.70;69.20
4386;DHT22;2207;53.540;10.042;2023-06-14T03:14:13;13.70;69.50
4386;DHT22;2207;53.540;10.042;2023-06-14T03:16:40;13.70;69.70
4386;DHT22;2207;53.540;10.042;2023-06-14T03:19:08;13.70;69.70
4386;DHT22;2207;53.540;10.042;2023-06-14T03:21:34;13.70;69.90
4386;DHT22;2207;53.540;10.042;2023-06-14T03:24:03;13.70;70.00
4386;DHT22;2207;53.540;10.042;2023-06-14T03:26:29;13.70;70.10
4386;DHT22;2207;53.540;10.042;2023-06-14T03:28:56;13.70;70.00
4386;DHT22;2207;53.540;10.042;2023-06-14T03:31:23;13.70;70.00
4386;DHT22;2207;53.540;10.042;2023-06-14T03:33:50;13.80;70.10
4386;DHT22;2207;53.540;10.042;2023-06-14T03:36:16;13.80;70.10
4386;DHT22;2207;53.540;10.042;2023-06-14T03:38:44;13.80;70.10
4386;DHT22;2207;53.540;10.042;2023-06-14T03:41:12;13.90;70.20
4386;DHT22;2207;53.540;10.042;2023-06-14T03:43:38;13.90;70.20
4386;DHT22;2207;53.540;10.042;2023-06-14T03:46:11;13.90;70.20
4386;DHT22;2207;53.540;10.042;2023-06-14T03:48:38;13.90;70.20
4386;DHT22;2207;53.540;10.042;2023-06-14T03:51:05;14.00;70.30
4386;DHT22;2207;53.540;10.042;2023-06-14T03:53:32;14.00;70.30
4386;DHT22;2207;53.540;10.042;2023-06-14T03:56:00;14.00;70.40
4386;DHT22;2207;53.540;10.042;2023-06-14T03:58:28;14.10;70.40
4386;DHT22;2207;53.540;10.042;2023-06-14T04:00:55;14.10;70.50
4386;DHT22;2207;53.540;10.042;2023-06-14T04:03:22;14.20;70.50
4386;DHT22;2207;53.540;10.042;2023-06-14T04:05:54;14.20;70.50
4386;DHT22;2207;53.540;10.042;2023-06-14T04:08:22;14.30;70.60
4386;DHT22;2207;53.540;10.042;2023-06-14T04:10:50;14.40;70.60
4386;DHT22;2207;53.540;10.042;2023-06-14T04:13:16;14.40;70.60
4386;DHT22;2207;53.540;10.042;2023-06-14T04:15:44;14.50;70.50
4386;DHT22;2207;53.540;10.042;2023-06-14T04:18:12;14.50;70.40
4386;DHT22;2207;53.540;10.042;2023-06-14T04:20:39;14.60;70.30
4386;DHT22;2207;53.540;10.042;2023-06-14T04:23:12;14.70;70.30
4386;DHT22;2207;53.540;10.042;2023-06-14T04:25:39;14.70;70.20
4386;DHT22;2207;53.540;10.042;2023-06-14T04:28:10;14.80;70.20
4386;DHT22;2207;53.540;10.042;2023-06-14T04:30:37;14.90;69.90
4386;DHT22;2207;53.540;10.042;2023-06-14T04:33:07;15.00;69.90
4386;DHT22;2207;53.540;10.042;2023-06-14T04:35:35;15.10;69.90
4386;DHT22;2207;53.540;10.042;2023-06-14T04:38:02;15.20;69.80
4386;DHT22;2207;53.540;10.042;2023-06-14T04:40:30;15.30;70.40
4386;DHT22;2207;53.540;10.042;2023-06-14T04:42:58;15.40;69.70
4386;DHT22;2207;53.540;10.042;2023-06-14T04:45:25;15.50;69.20
4386;DHT22;2207;53.540;10.042;2023-06-14T04:47:58;15.60;68.90
4386;DHT22;2207;53.540;10.042;2023-06-14T04:50:26;15.70;69.00
4386;DHT22;2207;53.540;10.042;2023-06-14T04:52:53;15.80;68.90
4386;DHT22;2207;53.540;10.042;2023-06-14T04:55:20;15.90;68.70
4386;DHT22;2207;53.540;10.042;2023-06-14T04:57:47;16.00;68.70
4386;DHT22;2207;53.540;10.042;2023-06-14T05:00:15;16.10;68.30
4386;DHT22;2207;53.540;10.042;2023-06-14T05:02:42;16.20;68.20
4386;DHT22;2207;53.540;10.042;2023-06-14T05:05:09;16.40;68.10
4386;DHT22;2207;53.540;10.042;2023-06-14T05:07:37;16.60;67.50
4386;DHT22;2207;53.540;10.042;2023-06-14T05:10:05;16.70;67.20
4386;DHT22;2207;53.540;10.042;2023-06-14T05:12:32;16.80;67.20
4386;DHT22;2207;53.540;10.042;2023-06-14T05:14:59;16.90;67.10
4386;DHT22;2207;53.540;10.042;2023-06-14T05:17:26;17.10;66.70
4386;DHT22;2207;53.540;10.042;2023-06-14T05:19:53;17.30;66.60
4386;DHT22;2207;53.540;10.042;2023-06-14T05:22:21;18.30;70.50
4386;DHT22;2207;53.540;10.042;2023-06-14T05:24:49;20.80;66.50
4386;DHT22;2207;53.540;10.042;2023-06-14T05:27:16;23.30;59.30
4386;DHT22;2207;53.540;10.042;2023-06-14T05:29:43;25.10;57.50
4386;DHT22;2207;53.540;10.042;2023-06-14T05:32:10;26.80;54.50
4386;DHT22;2207;53.540;10.042;2023-06-14T05:34:36;28.20;50.40
4386;DHT22;2207;53.540;10.042;2023-06-14T05:37:04;29.50;48.80
4386;DHT22;2207;53.540;10.042;2023-06-14T05:39:31;30.90;45.70
4386;DHT22;2207;53.540;10.042;2023-06-14T05:41:59;31.40;41.50
4386;DHT22;2207;53.540;10.042;2023-06-14T05:44:25;31.70;40.40
4386;DHT22;2207;53.540;10.042;2023-06-14T05:46:52;32.10;39.10
4386;DHT22;2207;53.540;10.042;2023-06-14T05:49:19;32.30;37.20
4386;DHT22;2207;53.540;10.042;2023-06-14T05:51:45;32.30;35.50
4386;DHT22;2207;53.540;10.042;2023-06-14T05:54:13;32.60;35.30
4386;DHT22;2207;53.540;10.042;2023-06-14T05:56:40;33.10;34.10
4386;DHT22;2207;53.540;10.042;2023-06-14T05:59:08;33.80;32.50
4386;DHT22;2207;53.540;10.042;2023-06-14T06:01:34;34.00;31.50
4386;DHT22;2207;53.540;10.042;2023-06-14T06:04:02;34.00;30.60
4386;DHT22;2207;53.540;10.042;2023-06-14T06:06:29;34.30;30.50
4386;DHT22;2207;53.540;10.042;2023-06-14T06:08:55;35.30;29.40
4386;DHT22;2207;53.540;10.042;2023-06-14T06:11:22;36.00;28.20
4386;DHT22;2207;53.540;10.042;2023-06-14T06:13:49;36.00;27.60
4386;DHT22;2207;53.540;10.042;2023-06-14T06:16:17;35.90;27.80
4386;DHT22;2207;53.540;10.042;2023-06-14T06:18:44;35.50;26.50
4386;DHT22;2207;53.540;10.042;2023-06-14T06:21:10;35.00;26.80
4386;DHT22;2207;53.540;10.042;2023-06-14T06:23:37;35.00;26.90
4386;DHT22;2207;53.540;10.042;2023-06-14T06:26:04;35.30;26.30
4386;DHT22;2207;53.540;10.042;2023-06-14T06:28:31;35.80;25.80
4386;DHT22;2207;53.540;10.042;2023-06-14T06:30:58;36.70;25.20
4386;DHT22;2207;53.540;10.042;2023-06-14T06:33:26;36.60;24.40
4386;DHT22;2207;53.540;10.042;2023-06-14T06:35:53;36.00;24.40
4386;DHT22;2207;53.540;10.042;2023-06-14T06:38:20;35.80;24.70
4386;DHT22;2207;53.540;10.042;2023-06-14T06:40:46;36.00;24.70
4386;DHT22;2207;53.540;10.042;2023-06-14T06:43:13;36.50;24.40
4386;DHT22;2207;53.540;10.042;2023-06-14T06:45:43;36.40;24.30
4386;DHT22;2207;53.540;10.042;2023-06-14T06:48:10;36.50;24.30
4386;DHT22;2207;53.540;10.042;2023-06-14T06:50:38;36.70;24.00
4386;DHT22;2207;53.540;10.042;2023-06-14T06:53:05;36.50;23.60
4386;DHT22;2207;53.540;10.042;2023-06-14T06:55:32;35.90;23.80
4386;DHT22;2207;53.540;10.042;2023-06-14T06:57:59;35.60;23.90
4386;DHT22;2207;53.540;10.042;2023-06-14T07:00:26;36.00;23.50
4386;DHT22;2207;53.540;10.042;2023-06-14T07:02:53;36.40;23.40
4386;DHT22;2207;53.540;10.042;2023-06-14T07:05:20;37.30;22.60
4386;DHT22;2207;53.540;10.042;2023-06-14T07:07:48;38.20;22.20
4386;DHT22;2207;53.540;10.042;2023-06-14T07:10:15;39.30;21.10
4386;DHT22;2207;53.540;10.042;2023-06-14T07:12:42;39.40;20.90
4386;DHT22;2207;53.540;10.042;2023-06-14T07:15:09;39.30;20.90
4386;DHT22;2207;53.540;10.042;2023-06-14T07:17:36;38.70;20.80
4386;DHT22;2207;53.540;10.042;2023-06-14T07:20:04;38.20;21.20
4386;DHT22;2207;53.540;10.042;2023-06-14T07:22:37;38.20;21.10
4386;DHT22;2207;53.540;10.042;2023-06-14T07:25:07;38.20;21.00
4386;DHT22;2207;53.540;10.042;2023-06-14T07:27:34;38.20;20.80
4386;DHT22;2207;53.540;10.042;2023-06-14T07:30:01;37.70;21.10
4386;DHT22;2207;53.540;10.042;2023-06-14T07:32:28;37.70;21.30
4386;DHT22;2207;53.540;10.042;2023-06-14T07:34:54;38.40;20.70
4386;DHT22;2207;53.540;10.042;2023-06-14T07:37:21;39.20;20.10
4386;DHT22;2207;53.540;10.042;2023-06-14T07:39:48;39.20;20.10
4386;DHT22;2207;53.540;10.042;2023-06-14T07:42:16;38.60;20.40
4386;DHT22;2207;53.540;10.042;2023-06-14T07:44:43;38.10;21.00
4386;DHT22;2207;53.540;10.042;2023-06-14T07:47:10;38.80;20.90
4386;DHT22;2207;53.540;10.042;2023-06-14T07:49:37;38.90;20.60
4386;DHT22;2207;53.540;10.042;2023-06-14T07:52:05;38.70;20.80
4386;DHT22;2207;53.540;10.042;2023-06-14T07:54:32;38.60;21.00
4386;DHT22;2207;53.540;10.042;2023-06-14T07:56:59;37.90;21.00
4386;DHT22;2207;53.540;10.042;2023-06-14T07:59:27;37.00;21.60
4386;DHT22;2207;53.540;10.042;2023-06-14T08:01:54;36.90;21.80
4386;DHT22;2207;53.540;10.042;2023-06-14T08:04:21;36.70;21.70
4386;DHT22;2207;53.540;10.042;2023-06-14T08:06:47;36.30;22.30
4386;DHT22;2207;53.540;10.042;2023-06-14T08:09:14;36.60;22.10
4386;DHT22;2207;53.540;10.042;2023-06-14T08:11:41;36.60;22.00
4386;DHT22;2207;53.540;10.042;2023-06-14T08:14:08;36.20;22.00
4386;DHT22;2207;53.540;10.042;2023-06-14T08:16:36;35.70;22.60
4386;DHT22;2207;53.540;10.042;2023-06-14T08:19:04;36.10;22.30
4386;DHT22;2207;53.540;10.042;2023-06-14T08:21:31;36.20;22.20
4386;DHT22;2207;53.540;10.042;2023-06-14T08:23:59;35.30;22.60
4386;DHT22;2207;53.540;10.042;2023-06-14T08:26:25;33.10;24.20
4386;DHT22;2207;53.540;10.042;2023-06-14T08:28:54;30.60;26.50
4386;DHT22;2207;53.540;10.042;2023-06-14T08:31:21;28.30;29.20
4386;DHT22;2207;53.540;10.042;2023-06-14T08:33:49;26.40;32.30
4386;DHT22;2207;53.540;10.042;2023-06-14T08:36:16;25.10;34.70
4386;DHT22;2207;53.540;10.042;2023-06-14T08:38:43;24.30;36.40
4386;DHT22;2207;53.540;10.042;2023-06-14T08:41:12;23.90;37.40
4386;DHT22;2207;53.540;10.042;2023-06-14T08:43:39;23.60;37.80
4386;DHT22;2207;53.540;10.042;2023-06-14T08:46:06;23.50;38.20
4386;DHT22;2207;53.540;10.042;2023-06-14T08:48:37;23.40;38.70
4386;DHT22;2207;53.540;10.042;2023-06-14T08:51:06;23.30;38.90
4386;DHT22;2207;53.540;10.042;2023-06-14T08:53:36;23.20;39.10
4386;DHT22;2207;53.540;10.042;2023-06-14T08:56:08;23.10;39.20
4386;DHT22;2207;53.540;10.042;2023-06-14T08:58:39;23.10;39.30
4386;DHT22;2207;53.540;10.042;2023-06-14T09:01:09;23.20;40.00
4386;DHT22;2207;53.540;10.042;2023-06-14T09:03:37;23.30;39.10
4386;DHT22;2207;53.540;10.042;2023-06-14T09:06:08;23.40;38.80
4386;DHT22;2207;53.540;10.042;2023-06-14T09:08:40;23.50;38.60
4386;DHT22;2207;53.540;10.042;2023-06-14T09:11:08;23.50;38.40
4386;DHT22;2207;53.540;10.042;2023-06-14T09:13:35;23.60;38.20
4386;DHT22;2207;53.540;10.042;2023-06-14T09:16:02;23.70;38.10
4386;DHT22;2207;53.540;10.042;2023-06-14T09:18:36;24.00;37.80
4386;DHT22;2207;53.540;10.042;2023-06-14T09:21:03;24.20;37.40
4386;DHT22;2207;53.540;10.042;2023-06-14T09:23:33;24.30;37.10
4386;DHT22;2207;53.540;10.042;2023-06-14T09:26:06;24.30;36.90
4386;DHT22;2207;53.540;10.042;2023-06-14T09:28:33;24.10;37.00
4386;DHT22;2207;53.540;10.042;2023-06-14T09:31:00;23.80;37.50
4386;DHT22;2207;53.540;10.042;2023-06-14T09:33:27;23.50;38.10
4386;DHT22;2207;53.540;10.042;2023-06-14T09:35:55;23.70;38.00
4386;DHT22;2207;53.540;10.042;2023-06-14T09:38:21;23.90;37.60
4386;DHT22;2207;53.540;10.042;2023-06-14T09:40:51;23.90;37.50
4386;DHT22;2207;53.540;10.042;2023-06-14T09:43:18;23.90;37.80
4386;DHT22;2207;53.540;10.042;2023-06-14T09:45:48;23.80;38.00
4386;DHT22;2207;53.540;10.042;2023-06-14T09:48:15;24.00;38.00
4386;DHT22;2207;53.540;10.042;2023-06-14T09:50:45;24.10;38.10
4386;DHT22;2207;53.540;10.042;2023-06-14T09:53:13;24.10;38.10
4386;DHT22;2207;53.540;10.042;2023-06-14T09:55:41;23.90;38.40
4386;DHT22;2207;53.540;10.042;2023-06-14T09:58:10;23.90;38.10
4386;DHT22;2207;53.540;10.042;2023-06-14T10:00:39;23.80;38.50
4386;DHT22;2207;53.540;10.042;2023-06-14T10:03:12;24.10;38.30
4386;DHT22;2207;53.540;10.042;2023-06-14T10:05:42;24.30;38.00
4386;DHT22;2207;53.540;10.042;2023-06-14T10:08:13;24.40;37.80
4386;DHT22;2207;53.540;10.042;2023-06-14T10:10:42;24.50;38.00
4386;DHT22;2207;53.540;10.042;2023-06-14T10:13:11;24.60;38.20
4386;DHT22;2207;53.540;10.042;2023-06-14T10:15:44;24.90;37.80
4386;DHT22;2207;53.540;10.042;2023-06-14T10:18:19;24.80;37.40
4386;DHT22;2207;53.540;10.042;2023-06-14T10:20:55;24.50;37.60
4386;DHT22;2207;53.540;10.042;2023-06-14T10:23:26;24.30;38.40
4386;DHT22;2207;53.540;10.042;2023-06-14T10:25:57;24.40;38.50
4386;DHT22;2207;53.540;10.042;2023-06-14T10:28:28;24.40;38.90
4386;DHT22;2207;53.540;10.042;2023-06-14T10:31:06;24.40;37.90
4386;DHT22;2207;53.540;10.042;2023-06-14T10:33:34;24.60;37.70
4386;DHT22;2207;53.540;10.042;2023-06-14T10:36:08;24.90;37.40
4386;DHT22;2207;53.540;10.042;2023-06-14T10:38:37;25.20;37.00
4386;DHT22;2207;53.540;10.042;2023-06-14T10:41:04;25.20;37.00
4386;DHT22;2207;53.540;10.042;2023-06-14T10:43:33;25.40;37.00
4386;DHT22;2207;53.540;10.042;2023-06-14T10:46:16;25.60;36.10
4386;DHT22;2207;53.540;10.042;2023-06-14T10:48:47;25.50;36.00
4386;DHT22;2207;53.540;10.042;2023-06-14T10:51:17;25.20;36.60
4386;DHT22;2207;53.540;10.042;2023-06-14T10:53:46;24.80;36.90
4386;DHT22;2207;53.540;10.042;2023-06-14T10:56:29;24.60;37.20
4386;DHT22;2207;53.540;10.042;2023-06-14T10:58:58;24.80;37.40
4386;DHT22;2207;53.540;10.042;2023-06-14T11:01:41;25.20;36.60
4386;DHT22;2207;53.540;10.042;2023-06-14T11:04:12;25.30;35.30
4386;DHT22;2207;53.540;10.042;2023-06-14T11:06:46;25.40;35.30
4386;DHT22;2207;53.540;10.042;2023-06-14T11:12:11;26.00;34.10
4386;DHT22;2207;53.540;10.042;2023-06-14T11:14:40;26.00;34.10
4386;DHT22;2207;53.540;10.042;2023-06-14T11:17:07;25.70;34.90
4386;DHT22;2207;53.540;10.042;2023-06-14T11:19:33;25.40;35.20
4386;DHT22;2207;53.540;10.042;2023-06-14T11:22:01;25.10;35.80
4386;DHT22;2207;53.540;10.042;2023-06-14T11:24:28;25.10;35.60
4386;DHT22;2207;53.540;10.042;2023-06-14T11:26:55;25.30;35.30
4386;DHT22;2207;53.540;10.042;2023-06-14T11:29:23;25.40;35.20
4386;DHT22;2207;53.540;10.042;2023-06-14T11:31:54;25.50;34.90
4386;DHT22;2207;53.540;10.042;2023-06-14T11:34:20;25.70;34.80
4386;DHT22;2207;53.540;10.042;2023-06-14T11:36:47;25.90;34.60
4386;DHT22;2207;53.540;10.042;2023-06-14T11:39:14;26.10;34.30
4386;DHT22;2207;53.540;10.042;2023-06-14T11:41:42;26.20;34.30
4386;DHT22;2207;53.540;10.042;2023-06-14T11:44:09;26.20;34.30
4386;DHT22;2207;53.540;10.042;2023-06-14T11:46:37;25.90;34.90
4386;DHT22;2207;53.540;10.042;2023-06-14T11:49:07;25.60;35.60
4386;DHT22;2207;53.540;10.042;2023-06-14T11:51:35;25.10;36.00
4386;DHT22;2207;53.540;10.042;2023-06-14T11:54:02;24.70;36.80
4386;DHT22;2207;53.540;10.042;2023-06-14T11:56:30;24.60;37.20
4386;DHT22;2207;53.540;10.042;2023-06-14T11:58:57;24.50;37.60
4386;DHT22;2207;53.540;10.042;2023-06-14T12:01:24;24.40;38.60
4386;DHT22;2207;53.540;10.042;2023-06-14T12:03:53;24.50;37.70
4386;DHT22;2207;53.540;10.042;2023-06-14T12:06:28;24.70;37.30
4386;DHT22;2207;53.540;10.042;2023-06-14T12:08:58;24.80;37.40
4386;DHT22;2207;53.540;10.042;2023-06-14T12:11:32;24.90;36.90
4386;DHT22;2207;53.540;10.042;2023-06-14T12:13:58;25.10;36.50
4386;DHT22;2207;53.540;10.042;2023-06-14T12:16:30;25.20;36.20
4386;DHT22;2207;53.540;10.042;2023-06-14T12:19:00;25.10;36.20
4386;DHT22;2207;53.540;10.042;2023-06-14T12:21:28;25.10;36.20
4386;DHT22;2207;53.540;10.042;2023-06-14T12:23:55;25.30;36.10
4386;DHT22;2207;53.540;10.042;2023-06-14T12:26:24;25.70;35.80
4386;DHT22;2207;53.540;10.042;2023-06-14T12:28:53;26.20;35.10
4386;DHT22;2207;53.540;10.042;2023-06-14T12:31:19;26.50;34.30
4386;DHT22;2207;53.540;10.042;2023-06-14T12:33:46;26.60;34.00
4386;DHT22;2207;53.540;10.042;2023-06-14T12:36:14;26.60;33.90
4386;DHT22;2207;53.540;10.042;2023-06-14T12:38:42;26.40;34.10
4386;DHT22;2207;53.540;10.042;2023-06-14T12:41:11;25.80;35.20
4386;DHT22;2207;53.540;10.042;2023-06-14T12:43:39;25.20;36.10
4386;DHT22;2207;53.540;10.042;2023-06-14T12:46:05;24.80;36.90
4386;DHT22;2207;53.540;10.042;2023-06-14T12:48:32;24.40;37.10
4386;DHT22;2207;53.540;10.042;2023-06-14T12:50:59;24.10;37.90
4386;DHT22;2207;53.540;10.042;2023-06-14T12:53:26;24.00;38.30
4386;DHT22;2207;53.540;10.042;2023-06-14T12:55:54;24.00;38.50
4386;DHT22;2207;53.540;10.042;2023-06-14T12:58:21;24.20;38.40
4386;DHT22;2207;53.540;10.042;2023-06-14T13:00:49;24.40;37.70
4386;DHT22;2207;53.540;10.042;2023-06-14T13:03:15;24.50;37.10
4386;DHT22;2207;53.540;10.042;2023-06-14T13:05:42;24.80;36.60
4386;DHT22;2207;53.540;10.042;2023-06-14T13:08:09;24.90;36.20
4386;DHT22;2207;53.540;10.042;2023-06-14T13:10:36;25.20;36.00
4386;DHT22;2207;53.540;10.042;2023-06-14T13:13:04;25.40;35.40
4386;DHT22;2207;53.540;10.042;2023-06-14T13:15:33;25.50;35.20
4386;DHT22;2207;53.540;10.042;2023-06-14T13:17:59;25.40;35.10
4386;DHT22;2207;53.540;10.042;2023-06-14T13:20:26;25.20;35.30
4386;DHT22;2207;53.540;10.042;2023-06-14T13:22:55;25.00;35.80
4386;DHT22;2207;53.540;10.042;2023-06-14T13:25:22;24.60;36.80
4386;DHT22;2207;53.540;10.042;2023-06-14T13:27:49;24.40;37.00
4386;DHT22;2207;53.540;10.042;2023-06-14T13:30:17;24.30;37.10
4386;DHT22;2207;53.540;10.042;2023-06-14T13:32:44;24.30;37.00
4386;DHT22;2207;53.540;10.042;2023-06-14T13:35:10;24.30;36.90
4386;DHT22;2207;53.540;10.042;2023-06-14T13:37:37;24.40;36.80
4386;DHT22;2207;53.540;10.042;2023-06-14T13:40:05;24.50;36.60
4386;DHT22;2207;53.540;10.042;2023-06-14T13:42:32;24.70;36.30
4386;DHT22;2207;53.540;10.042;2023-06-14T13:44:59;25.20;35.60
4386;DHT22;2207;53.540;10.042;2023-06-14T13:47:27;25.60;34.60
4386;DHT22;2207;53.540;10.042;2023-06-14T13:49:53;25.70;35.40
4386;DHT22;2207;53.540;10.042;2023-06-14T13:52:20;25.60;35.00
4386;DHT22;2207;53.540;10.042;2023-06-14T13:54:47;25.20;35.30
4386;DHT22;2207;53.540;10.042;2023-06-14T13:57:14;24.80;35.80
4386;DHT22;2207;53.540;10.042;2023-06-14T13:59:41;24.50;36.20
4386;DHT22;2207;53.540;10.042;2023-06-14T14:02:09;24.30;36.60
4386;DHT22;2207;53.540;10.042;2023-06-14T14:04:38;24.40;36.70
4386;DHT22;2207;53.540;10.042;2023-06-14T14:07:05;24.70;36.40
4386;DHT22;2207;53.540;10.042;2023-06-14T14:09:33;25.00;35.90
4386;DHT22;2207;53.540;10.042;2023-06-14T14:12:00;25.20;35.60
4386;DHT22;2207;53.540;10.042;2023-06-14T14:14:27;25.10;35.60
4386;DHT22;2207;53.540;10.042;2023-06-14T14:16:54;25.10;35.70
4386;DHT22;2207;53.540;10.042;2023-06-14T14:19:20;25.00;35.70
4386;DHT22;2207;53.540;10.042;2023-06-14T14:21:48;24.80;35.80
4386;DHT22;2207;53.540;10.042;2023-06-14T14:24:15;24.60;36.00
4386;DHT22;2207;53.540;10.042;2023-06-14T14:26:42;24.40;35.90
4386;DHT22;2207;53.540;10.042;2023-06-14T14:29:09;24.30;35.90
4386;DHT22;2207;53.540;10.042;2023-06-14T14:31:36;24.50;35.90
4386;DHT22;2207;53.540;10.042;2023-06-14T14:34:03;24.60;35.70
4386;DHT22;2207;53.540;10.042;2023-06-14T14:36:30;24.60;36.10
4386;DHT22;2207;53.540;10.042;2023-06-14T14:39:00;24.40;36.40
4386;DHT22;2207;53.540;10.042;2023-06-14T14:41:27;24.30;36.80
4386;DHT22;2207;53.540;10.042;2023-06-14T14:43:54;24.20;36.80
4386;DHT22;2207;53.540;10.042;2023-06-14T14:46:22;24.20;36.90
4386;DHT22;2207;53.540;10.042;2023-06-14T14:48:49;24.30;36.80
4386;DHT22;2207;53.540;10.042;2023-06-14T14:51:16;24.30;36.40
4386;DHT22;2207;53.540;10.042;2023-06-14T14:53:42;24.40;36.20
4386;DHT22;2207;53.540;10.042;2023-06-14T14:56:10;24.50;35.90
4386;DHT22;2207;53.540;10.042;2023-06-14T14:58:38;24.50;35.90
4386;DHT22;2207;53.540;10.042;2023-06-14T15:01:04;24.40;36.00
4386;DHT22;2207;53.540;10.042;2023-06-14T15:03:32;24.40;36.00
4386;DHT22;2207;53.540;10.042;2023-06-14T15:05:59;24.50;35.70
4386;DHT22;2207;53.540;10.042;2023-06-14T15:08:25;24.40;35.70
4386;DHT22;2207;53.540;10.042;2023-06-14T15:10:52;24.30;35.80
4386;DHT22;2207;53.540;10.042;2023-06-14T15:13:20;24.20;35.80
4386;DHT22;2207;53.540;10.042;2023-06-14T15:15:48;24.10;36.00
4386;DHT22;2207;53.540;10.042;2023-06-14T15:18:15;24.10;35.90
4386;DHT22;2207;53.540;10.042;2023-06-14T15:20:42;24.20;35.70
4386;DHT22;2207;53.540;10.042;2023-06-14T15:23:09;24.20;35.70
4386;DHT22;2207;53.540;10.042;2023-06-14T15:25:35;24.20;35.30
4386;DHT22;2207;53.540;10.042;2023-06-14T15:28:02;24.10;35.70
4386;DHT22;2207;53.540;10.042;2023-06-14T15:30:33;24.10;35.80
4386;DHT22;2207;53.540;10.042;2023-06-14T15:33:00;24.10;35.80
4386;DHT22;2207;53.540;10.042;2023-06-14T15:35:26;24.20;35.80
4386;DHT22;2207;53.540;10.042;2023-06-14T15:37:53;24.20;35.60
4386;DHT22;2207;53.540;10.042;2023-06-14T15:40:20;24.10;35.60
4386;DHT22;2207;53.540;10.042;2023-06-14T15:42:47;24.10;35.60
4386;DHT22;2207;53.540;10.042;2023-06-14T15:45:14;24.00;35.70
4386;DHT22;2207;53.540;10.042;2023-06-14T15:47:42;24.00;35.90
4386;DHT22;2207;53.540;10.042;2023-06-14T15:50:10;24.00;36.10
4386;DHT22;2207;53.540;10.042;2023-06-14T15:52:37;24.00;35.80